Bookmark and Share
Track history (hours):
 

Noordam (Netherlands)

Ship's website: http://www.hollandamerica.com/cruiseships/Noordam

Last reported at 2014-Apr-15 23:11 UTC. Time now 2014-Apr-18 03:21 UTC.
Position N 40°13' E 013°31'.

Type: Passenger vessel. MMSI: 246028000.

NotesDate/timePositionNaut miles runAvg speedWind from/ knotsBaromVisibWave heightAir tempDewpointWater temp
2014-Apr-15 23:11N 40°13' E 013°31'1516.5
2014-Apr-15 22:18N 40°24' E 013°18'1216.6
2014-Apr-15 21:33N 40°33' E 013°07'27 1.0
2014-Apr-14 17:34N 40°54' E 013°30'1413.7
2014-Apr-14 16:34N 40°45' E 013°44'1312.9
2014-Apr-14 15:34N 40°40' E 013°60'1414.1
2014-Apr-14 14:34N 40°48' E 014°15'234 5.7
2014-Apr-12 21:19N 37°37' E 011°21'1113.9
2014-Apr-12 20:33N 37°30' E 011°11'1414.1
2014-Apr-12 19:34N 37°20' E 010°59'2014.4
2014-Apr-12 18:10N 37°06' E 010°41'1014.2
2014-Apr-12 17:28N 36°58' E 010°34'16 1.6
2014-Apr-12 07:18N 36°49' E 010°18'0 0.4
2014-Apr-12 06:33N 36°49' E 010°18'6 6.0
2014-Apr-12 05:33N 36°51' E 010°25'1110.9
2014-Apr-12 04:32N 37°02' E 010°28'1111.1
2014-Apr-12 03:33N 37°12' E 010°28'1110.8
2014-Apr-12 02:33N 37°23' E 010°28'1110.8
2014-Apr-12 01:33N 37°34' E 010°28'1110.9
2014-Apr-12 00:33N 37°45' E 010°26'1111.2
2014-Apr-11 23:33N 37°56' E 010°25'1111.2
2014-Apr-11 22:33N 38°07' E 010°23'1110.8
2014-Apr-11 21:32N 38°18' E 010°23'2211.2
2014-Apr-11 19:32N 38°40' E 010°21'1111.2
2014-Apr-11 18:32N 38°52' E 010°19'18311.8
2014-Apr-11 03:00N 41°54' E 009°54'24 8.5 340 / 61017.010.8 14.813.8
2014-Apr-11 00:08N 42°18' E 009°55'2111.5
2014-Apr-10 22:18N 42°39' E 009°54'811.2
2014-Apr-10 21:33N 42°47' E 009°57'1111.2
2014-Apr-10 20:34N 42°58' E 009°60'1111.1
2014-Apr-10 19:33N 43°09' E 010°04'1111.1
2014-Apr-10 18:34N 43°20' E 010°07'1110.9
2014-Apr-10 17:34N 43°30' E 010°12'5 4.8
2014-Apr-10 16:31N 43°33' E 010°18'0 0.0
2014-Apr-10 15:33N 43°33' E 010°18'0 0.0
2014-Apr-10 14:33N 43°33' E 010°18'0 0.0
2014-Apr-10 13:33N 43°33' E 010°18'0 0.0
2014-Apr-10 12:32N 43°33' E 010°18'0 0.0
2014-Apr-10 11:32N 43°33' E 010°18'0 0.0
2014-Apr-10 10:30N 43°33' E 010°18'0 0.0
2014-Apr-10 09:33N 43°33' E 010°18'0 0.0
2014-Apr-10 08:32N 43°33' E 010°18'0 0.0
2014-Apr-10 07:32N 43°33' E 010°18'0 0.0
2014-Apr-10 06:33N 43°33' E 010°18'0 0.0
2014-Apr-10 05:30N 43°33' E 010°18'0 0.1
2014-Apr-10 04:33N 43°33' E 010°18'5 5.2
2014-Apr-10 03:33N 43°29' E 010°13'8 7.9
2014-Apr-10 02:33N 43°24' E 010°05'8 8.3
2014-Apr-10 01:33N 43°20' E 009°55'5 5.2
2014-Apr-10 00:33N 43°14' E 009°54'5 5.0
2014-Apr-09 23:33N 43°12' E 009°48'7 6.8
2014-Apr-09 22:33N 43°14' E 009°39'7 6.7
2014-Apr-09 21:33N 43°12' E 009°30'7 6.6
2014-Apr-09 20:33N 43°09' E 009°22'39 7.8
2014-Apr-09 15:33N 42°38' E 008°49'5 4.5
2014-Apr-09 14:31N 42°34' E 008°46'0 0.0
2014-Apr-09 13:26N 42°34' E 008°46'70 5.6
2014-Apr-09 01:00N 43°30' E 007°48'16 4.7 050 / 161017.010.8 14.213.1
2014-Apr-08 21:31N 43°41' E 007°32'5 0.3
2014-Apr-08 05:18N 43°44' E 007°27'7 9.7
2014-Apr-08 04:33N 43°39' E 007°21'1110.8
2014-Apr-08 03:33N 43°30' E 007°11'1010.4
2014-Apr-08 02:33N 43°22' E 007°02'1110.5
2014-Apr-08 01:31N 43°14' E 006°52'1410.5
2014-Apr-08 00:10N 43°03' E 006°40'25 9.5
2014-Apr-07 21:31N 42°54' E 006°08'1010.4
2014-Apr-07 20:32N 42°56' E 005°54'1010.2
2014-Apr-07 19:33N 42°58' E 005°40'2211.0
2014-Apr-07 17:33N 43°08' E 005°13'10 9.8
2014-Apr-07 16:33N 43°18' E 005°12'7 6.3
2014-Apr-07 15:29N 43°21' E 005°20'0 0.0
2014-Apr-07 12:04N 43°21' E 005°20'0 0.0
2014-Apr-07 10:22N 43°21' E 005°20'1 0.2
2014-Apr-07 04:30N 43°21' E 005°18'7 7.4
2014-Apr-07 03:33N 43°16' E 005°11'8 7.6
2014-Apr-07 02:33N 43°09' E 005°07'39 7.8
2014-Apr-06 21:33N 42°30' E 005°11'8 8.4
2014-Apr-06 20:33N 42°22' E 005°11'19 8.6
2014-Apr-06 18:23N 42°03' E 005°11'8 8.9
2014-Apr-06 17:32N 41°56' E 005°11'9 8.7
2014-Apr-06 16:29N 41°47' E 005°11'8 8.7
2014-Apr-06 15:32N 41°38' E 005°11'8 8.5
2014-Apr-06 14:33N 41°30' E 005°10'15 7.5
2014-Apr-06 12:32N 41°15' E 005°05'8 8.6
2014-Apr-06 11:33N 41°15' E 004°54'8 8.4
2014-Apr-06 10:33N 41°15' E 004°43'8 8.4
2014-Apr-06 09:33N 41°15' E 004°32'9 8.1
2014-Apr-06 08:27N 41°15' E 004°20'8 9.0
2014-Apr-06 07:33N 41°15' E 004°09'9 8.8
2014-Apr-06 06:33N 41°15' E 003°57'20 9.2
2014-Apr-06 04:20N 41°15' E 003°30'11 9.3
2014-Apr-06 03:08N 41°15' E 003°16'5 8.8
2014-Apr-06 02:33N 41°15' E 003°09'8 8.4
2014-Apr-06 01:33N 41°15' E 002°58'8 8.4
2014-Apr-06 00:33N 41°15' E 002°46'8 8.0
2014-Apr-05 23:33N 41°15' E 002°36'  

Dump ship's entire track history

sailing weather and tide predictions

Noordam — PHET — position and weather